Terminal Aerodrome Forecast
Issued by NWS

Home | Current Version | Previous Version | Text Only | Print | Product List | Glossary On
Versions: 1 2 3 4 5 6 7 8 9 10 11 12 13 14 15 16 17
000
FTUS43 KIND 270520
TAFLAF
TAF
KLAF 270520Z 2706/2806 VRB03KT P6SM -SHRA VCTS OVC070CB
     FM271000 00000KT 5SM -SHRA VCTS OVC035CB
     FM271500 VRB03KT 5SM -SHRA VCTS OVC025CB
     FM272100 01004KT P6SM VCTS OVC035CB
     FM280000 02005KT P6SM BKN080
      AMD LTD TO CLD VIS AND WIND TIL 271300=

USA.gov is the U.S. government's official web portal to all federal, state and local government web resources and services.